BAW722 EGLL-LOWW
Flight info
| Callsign | BAW722 |
|---|---|
| Flight time | 1h 45m |
| Altitude | 37000 |
| Route | DET L6 DVR UL9 KONAN DCT KOK UL607 FERDI DCT MATUG DCT GUBAX DCT BARSU DCT EKSOS DCT LULAR DCT RUDAP DCT BUDEX BUDEX2W |
| Aircraft | A319/M-SDE3FGHIRWY/LB1 |
Departure
| Time | 2026-05-06 06:21 |
|---|---|
| Airport | London Heathrow Airport (EGLL) |
Arrival
| Time | 2026-05-06 08:07 |
|---|---|
| Airport | Vienna International Airport (LOWW) |
| Time | Latitude | Longitude | Altitude | Speed | Heading |
|---|---|---|---|---|---|
| 2026-05-06 06:17 | 51.46653 | -0.48164 | 87 ft | 4 kts | 270° |
| 2026-05-06 06:17 | 51.46651 | -0.48211 | 87 ft | 0 kts | 256° |
| 2026-05-06 06:18 | 51.46617 | -0.48219 | 87 ft | 13 kts | 178° |
| 2026-05-06 06:18 | 51.46515 | -0.48214 | 88 ft | 14 kts | 180° |
| 2026-05-06 06:18 | 51.46477 | -0.48179 | 88 ft | 6 kts | 90° |
| 2026-05-06 06:19 | 51.46478 | -0.48170 | 88 ft | 0 kts | 88° |
| 2026-05-06 06:20 | 51.46478 | -0.48121 | 87 ft | 18 kts | 90° |
| 2026-05-06 06:20 | 51.46481 | -0.47568 | 85 ft | 80 kts | 89° |
| 2026-05-06 06:21 | 51.46484 | -0.46376 | 90 ft | 134 kts | 90° |
| 2026-05-06 06:21 | 51.46488 | -0.44629 | 233 ft | 167 kts | 92° |
| 2026-05-06 06:21 | 51.46501 | -0.42791 | 934 ft | 166 kts | 81° |
| 2026-05-06 06:21 | 51.46265 | -0.40978 | 1665 ft | 173 kts | 117° |
| 2026-05-06 06:22 | 51.45461 | -0.39376 | 2080 ft | 195 kts | 125° |
| 2026-05-06 06:22 | 51.44605 | -0.37529 | 2428 ft | 218 kts | 117° |
| 2026-05-06 06:22 | 51.43801 | -0.35312 | 2902 ft | 241 kts | 112° |
| 2026-05-06 06:22 | 51.43351 | -0.32626 | 3520 ft | 255 kts | 96° |
| 2026-05-06 06:23 | 51.43002 | -0.29810 | 4399 ft | 264 kts | 98° |
| 2026-05-06 06:23 | 51.42602 | -0.26901 | 5331 ft | 271 kts | 99° |
| 2026-05-06 06:23 | 51.42184 | -0.23895 | 5908 ft | 278 kts | 99° |
| 2026-05-06 06:23 | 51.41757 | -0.20838 | 6776 ft | 283 kts | 100° |
| 2026-05-06 06:24 | 51.41326 | -0.17748 | 7675 ft | 285 kts | 100° |
| 2026-05-06 06:24 | 51.40900 | -0.14666 | 8610 ft | 288 kts | 100° |
| 2026-05-06 06:24 | 51.40465 | -0.11512 | 9527 ft | 291 kts | 100° |
| 2026-05-06 06:24 | 51.40026 | -0.08316 | 10243 ft | 301 kts | 101° |
| 2026-05-06 06:25 | 51.39558 | -0.04911 | 10519 ft | 323 kts | 101° |
| 2026-05-06 06:25 | 51.39064 | -0.01327 | 11091 ft | 333 kts | 101° |
| 2026-05-06 06:25 | 51.38036 | 0.06034 | 12549 ft | 342 kts | 102° |
| 2026-05-06 06:26 | 51.37512 | 0.09781 | 13286 ft | 347 kts | 102° |
| 2026-05-06 06:26 | 51.36987 | 0.13528 | 13979 ft | 351 kts | 102° |
| 2026-05-06 06:26 | 51.36448 | 0.17368 | 14613 ft | 355 kts | 102° |
| 2026-05-06 06:26 | 51.35902 | 0.21259 | 15243 ft | 359 kts | 102° |
| 2026-05-06 06:27 | 51.35349 | 0.25175 | 15887 ft | 363 kts | 102° |
| 2026-05-06 06:27 | 51.34785 | 0.29141 | 16520 ft | 367 kts | 102° |
| 2026-05-06 06:27 | 51.34216 | 0.33143 | 17248 ft | 371 kts | 102° |
| 2026-05-06 06:27 | 51.33650 | 0.37133 | 17884 ft | 374 kts | 102° |
| 2026-05-06 06:28 | 51.33070 | 0.41219 | 18512 ft | 378 kts | 103° |
| 2026-05-06 06:28 | 51.32481 | 0.45349 | 19080 ft | 381 kts | 103° |
| 2026-05-06 06:28 | 51.31887 | 0.49490 | 19652 ft | 383 kts | 103° |
| 2026-05-06 06:28 | 51.31282 | 0.53667 | 20235 ft | 387 kts | 103° |
| 2026-05-06 06:29 | 51.30679 | 0.57811 | 20820 ft | 389 kts | 103° |
| 2026-05-06 06:29 | 51.30037 | 0.62037 | 21392 ft | 391 kts | 105° |
| 2026-05-06 06:29 | 51.29315 | 0.66255 | 21959 ft | 393 kts | 107° |
| 2026-05-06 06:29 | 51.28538 | 0.70468 | 22515 ft | 396 kts | 108° |
| 2026-05-06 06:30 | 51.27734 | 0.74691 | 23085 ft | 398 kts | 108° |
| 2026-05-06 06:30 | 51.26923 | 0.78936 | 23619 ft | 400 kts | 108° |
| 2026-05-06 06:30 | 51.26114 | 0.83201 | 24069 ft | 403 kts | 108° |
| 2026-05-06 06:30 | 51.25315 | 0.87456 | 24498 ft | 405 kts | 108° |
| 2026-05-06 06:31 | 51.24512 | 0.91781 | 24897 ft | 408 kts | 107° |
| 2026-05-06 06:31 | 51.23706 | 0.96140 | 25347 ft | 410 kts | 107° |
| 2026-05-06 06:31 | 51.22897 | 1.00520 | 25779 ft | 413 kts | 107° |
| 2026-05-06 06:31 | 51.22079 | 1.04942 | 26213 ft | 415 kts | 107° |
| 2026-05-06 06:32 | 51.21255 | 1.09378 | 26638 ft | 417 kts | 107° |
| 2026-05-06 06:32 | 51.20435 | 1.13769 | 27057 ft | 420 kts | 107° |
| 2026-05-06 06:32 | 51.19594 | 1.18259 | 27478 ft | 422 kts | 107° |
| 2026-05-06 06:32 | 51.18750 | 1.22754 | 27892 ft | 425 kts | 107° |
| 2026-05-06 06:33 | 51.17894 | 1.27289 | 28332 ft | 427 kts | 107° |
| 2026-05-06 06:33 | 51.17032 | 1.31845 | 28745 ft | 429 kts | 107° |
| 2026-05-06 06:33 | 51.16310 | 1.36486 | 29154 ft | 432 kts | 100° |
| 2026-05-06 06:33 | 51.16003 | 1.41198 | 29547 ft | 435 kts | 95° |
| 2026-05-06 06:34 | 51.15785 | 1.46009 | 29952 ft | 437 kts | 95° |
| 2026-05-06 06:34 | 51.15560 | 1.50858 | 30294 ft | 439 kts | 95° |
| 2026-05-06 06:34 | 51.15328 | 1.55720 | 30631 ft | 441 kts | 95° |
| 2026-05-06 06:34 | 51.15090 | 1.60600 | 30933 ft | 443 kts | 95° |
| 2026-05-06 06:35 | 51.14846 | 1.65505 | 31246 ft | 445 kts | 95° |
| 2026-05-06 06:35 | 51.14597 | 1.70443 | 31565 ft | 446 kts | 95° |
| 2026-05-06 06:35 | 51.14346 | 1.75362 | 32012 ft | 445 kts | 95° |
| 2026-05-06 06:35 | 51.14096 | 1.80268 | 32458 ft | 444 kts | 95° |
| 2026-05-06 06:36 | 51.13849 | 1.85098 | 32901 ft | 442 kts | 95° |
| 2026-05-06 06:36 | 51.13599 | 1.89978 | 33347 ft | 441 kts | 95° |
| 2026-05-06 06:36 | 51.13344 | 1.94857 | 33793 ft | 440 kts | 95° |
| 2026-05-06 06:36 | 51.13089 | 1.99715 | 34178 ft | 439 kts | 95° |
| 2026-05-06 06:37 | 51.12836 | 2.04499 | 34509 ft | 439 kts | 95° |
| 2026-05-06 06:37 | 51.12576 | 2.09412 | 34819 ft | 439 kts | 95° |
| 2026-05-06 06:37 | 51.12321 | 2.14203 | 35101 ft | 440 kts | 95° |
| 2026-05-06 06:37 | 51.12062 | 2.19075 | 35378 ft | 441 kts | 95° |
| 2026-05-06 06:38 | 51.11801 | 2.23942 | 35650 ft | 441 kts | 95° |
| 2026-05-06 06:38 | 51.11537 | 2.28813 | 35923 ft | 442 kts | 96° |
| 2026-05-06 06:38 | 51.11268 | 2.33706 | 36184 ft | 442 kts | 96° |
| 2026-05-06 06:38 | 51.10995 | 2.38585 | 36438 ft | 443 kts | 96° |
| 2026-05-06 06:39 | 51.10719 | 2.43462 | 36676 ft | 443 kts | 96° |
| 2026-05-06 06:39 | 51.10447 | 2.48304 | 36856 ft | 444 kts | 96° |
| 2026-05-06 06:39 | 51.10168 | 2.53221 | 36901 ft | 445 kts | 96° |
| 2026-05-06 06:40 | 51.09592 | 2.63038 | 36892 ft | 444 kts | 98° |
| 2026-05-06 06:40 | 51.08159 | 2.72514 | 36892 ft | 443 kts | 107° |
| 2026-05-06 06:41 | 51.06442 | 2.81942 | 36891 ft | 443 kts | 107° |
| 2026-05-06 06:41 | 51.04720 | 2.91365 | 36892 ft | 444 kts | 107° |
| 2026-05-06 06:42 | 51.03003 | 3.00740 | 36891 ft | 444 kts | 107° |
| 2026-05-06 06:42 | 51.01275 | 3.10169 | 36888 ft | 444 kts | 108° |
| 2026-05-06 06:43 | 50.99535 | 3.19611 | 36886 ft | 445 kts | 108° |
| 2026-05-06 06:43 | 50.97786 | 3.29049 | 36884 ft | 445 kts | 108° |
| 2026-05-06 06:44 | 50.96034 | 3.38418 | 36883 ft | 445 kts | 108° |
| 2026-05-06 06:44 | 50.94265 | 3.47830 | 36880 ft | 445 kts | 108° |
| 2026-05-06 06:45 | 50.92488 | 3.57250 | 36877 ft | 445 kts | 108° |
| 2026-05-06 06:45 | 50.90726 | 3.66598 | 36880 ft | 445 kts | 107° |
| 2026-05-06 06:46 | 50.89100 | 3.76077 | 36878 ft | 446 kts | 105° |
| 2026-05-06 06:46 | 50.87547 | 3.85598 | 36876 ft | 446 kts | 106° |
| 2026-05-06 06:47 | 50.85954 | 3.95108 | 36877 ft | 445 kts | 106° |
| 2026-05-06 06:47 | 50.84599 | 4.02987 | 36874 ft | 445 kts | 107° |
| 2026-05-06 06:48 | 50.82945 | 4.12498 | 36872 ft | 445 kts | 107° |
| 2026-05-06 06:48 | 50.81313 | 4.21934 | 36874 ft | 445 kts | 107° |
| 2026-05-06 06:49 | 50.79674 | 4.31378 | 36871 ft | 445 kts | 107° |
| 2026-05-06 06:49 | 50.78029 | 4.40810 | 36869 ft | 445 kts | 107° |
| 2026-05-06 06:50 | 50.76382 | 4.50178 | 36869 ft | 445 kts | 107° |
| 2026-05-06 06:50 | 50.74704 | 4.59662 | 36864 ft | 445 kts | 107° |
| 2026-05-06 06:51 | 50.73035 | 4.69035 | 36855 ft | 445 kts | 107° |
| 2026-05-06 06:51 | 50.71348 | 4.78449 | 36851 ft | 445 kts | 107° |
| 2026-05-06 06:52 | 50.69653 | 4.87860 | 36838 ft | 445 kts | 107° |
| 2026-05-06 06:52 | 50.67957 | 4.97236 | 36826 ft | 445 kts | 108° |
| 2026-05-06 06:53 | 50.66247 | 5.06651 | 36822 ft | 445 kts | 108° |
| 2026-05-06 06:53 | 50.64546 | 5.15988 | 36816 ft | 445 kts | 108° |
| 2026-05-06 06:54 | 50.62826 | 5.25383 | 36812 ft | 445 kts | 108° |
| 2026-05-06 06:54 | 50.61090 | 5.34758 | 36813 ft | 445 kts | 108° |
| 2026-05-06 06:55 | 50.59367 | 5.44063 | 36814 ft | 446 kts | 108° |
| 2026-05-06 06:55 | 50.57626 | 5.53449 | 36810 ft | 445 kts | 108° |
| 2026-05-06 06:56 | 50.55888 | 5.62739 | 36809 ft | 445 kts | 108° |
| 2026-05-06 06:56 | 50.54125 | 5.72099 | 36807 ft | 445 kts | 108° |
| 2026-05-06 06:57 | 50.52656 | 5.79862 | 36801 ft | 445 kts | 108° |
| 2026-05-06 06:57 | 50.50583 | 5.90775 | 36797 ft | 445 kts | 109° |
| 2026-05-06 06:58 | 50.48817 | 6.00027 | 36784 ft | 445 kts | 109° |
| 2026-05-06 06:58 | 50.47320 | 6.07823 | 36778 ft | 445 kts | 109° |
| 2026-05-06 06:59 | 50.45521 | 6.17129 | 36774 ft | 445 kts | 109° |
| 2026-05-06 06:59 | 50.43733 | 6.26358 | 36768 ft | 445 kts | 109° |
| 2026-05-06 07:00 | 50.41943 | 6.35660 | 36758 ft | 445 kts | 106° |
| 2026-05-06 07:00 | 50.41039 | 6.45321 | 36751 ft | 448 kts | 98° |
| 2026-05-06 07:01 | 50.40307 | 6.55018 | 36748 ft | 448 kts | 99° |
| 2026-05-06 07:01 | 50.39561 | 6.64659 | 36743 ft | 448 kts | 99° |
| 2026-05-06 07:02 | 50.38801 | 6.74375 | 36745 ft | 448 kts | 99° |
| 2026-05-06 07:02 | 50.38037 | 6.84032 | 36746 ft | 449 kts | 99° |
| 2026-05-06 07:03 | 50.37255 | 6.93741 | 36747 ft | 449 kts | 99° |
| 2026-05-06 07:03 | 50.36474 | 7.03449 | 36739 ft | 449 kts | 99° |
| 2026-05-06 07:04 | 50.35686 | 7.13176 | 36743 ft | 449 kts | 99° |
| 2026-05-06 07:04 | 50.34890 | 7.22842 | 36749 ft | 449 kts | 99° |
| 2026-05-06 07:05 | 50.34077 | 7.32565 | 36747 ft | 450 kts | 99° |
| 2026-05-06 07:05 | 50.33264 | 7.42301 | 36749 ft | 450 kts | 99° |
| 2026-05-06 07:06 | 50.32443 | 7.52014 | 36749 ft | 450 kts | 100° |
| 2026-05-06 07:06 | 50.31612 | 7.61669 | 36748 ft | 451 kts | 100° |
| 2026-05-06 07:07 | 50.30766 | 7.71394 | 36751 ft | 451 kts | 100° |
| 2026-05-06 07:07 | 50.29913 | 7.81121 | 36751 ft | 451 kts | 100° |
| 2026-05-06 07:08 | 50.29041 | 7.90857 | 36753 ft | 451 kts | 101° |
| 2026-05-06 07:08 | 50.27898 | 8.00449 | 36765 ft | 450 kts | 105° |
| 2026-05-06 07:09 | 50.26503 | 8.09983 | 36770 ft | 449 kts | 106° |
| 2026-05-06 07:09 | 50.25094 | 8.19509 | 36775 ft | 449 kts | 105° |
| 2026-05-06 07:10 | 50.23749 | 8.28998 | 36782 ft | 450 kts | 105° |
| 2026-05-06 07:10 | 50.22422 | 8.38539 | 36780 ft | 450 kts | 105° |
| 2026-05-06 07:11 | 50.21081 | 8.48093 | 36777 ft | 450 kts | 105° |
| 2026-05-06 07:11 | 50.19716 | 8.57629 | 36765 ft | 450 kts | 105° |
| 2026-05-06 07:12 | 50.18350 | 8.67083 | 36765 ft | 450 kts | 105° |
| 2026-05-06 07:12 | 50.16973 | 8.76639 | 36766 ft | 450 kts | 105° |
| 2026-05-06 07:13 | 50.15590 | 8.86172 | 36766 ft | 450 kts | 105° |
| 2026-05-06 07:13 | 50.14202 | 8.95628 | 36763 ft | 450 kts | 106° |
| 2026-05-06 07:14 | 50.12785 | 9.05201 | 36765 ft | 450 kts | 106° |
| 2026-05-06 07:14 | 50.11384 | 9.14675 | 36768 ft | 450 kts | 106° |
| 2026-05-06 07:15 | 50.09979 | 9.24153 | 36768 ft | 451 kts | 106° |
| 2026-05-06 07:15 | 50.08549 | 9.33671 | 36771 ft | 451 kts | 106° |
| 2026-05-06 07:16 | 50.07107 | 9.43188 | 36775 ft | 451 kts | 107° |
| 2026-05-06 07:16 | 50.05662 | 9.52685 | 36779 ft | 451 kts | 107° |
| 2026-05-06 07:17 | 50.04211 | 9.62196 | 36785 ft | 451 kts | 107° |
| 2026-05-06 07:17 | 50.02757 | 9.71646 | 36776 ft | 452 kts | 107° |
| 2026-05-06 07:18 | 50.01289 | 9.81161 | 36772 ft | 452 kts | 107° |
| 2026-05-06 07:18 | 49.99815 | 9.90632 | 36775 ft | 452 kts | 107° |
| 2026-05-06 07:19 | 49.98328 | 10.00131 | 36778 ft | 453 kts | 107° |
| 2026-05-06 07:19 | 49.96830 | 10.09656 | 36778 ft | 453 kts | 107° |
| 2026-05-06 07:20 | 49.95324 | 10.19184 | 36784 ft | 453 kts | 107° |
| 2026-05-06 07:20 | 49.93816 | 10.28644 | 36782 ft | 454 kts | 107° |
| 2026-05-06 07:21 | 49.92276 | 10.38154 | 36785 ft | 453 kts | 110° |
| 2026-05-06 07:21 | 49.90031 | 10.47246 | 36781 ft | 450 kts | 116° |
| 2026-05-06 07:22 | 49.87709 | 10.56230 | 36787 ft | 451 kts | 116° |
| 2026-05-06 07:22 | 49.85363 | 10.65268 | 36787 ft | 452 kts | 116° |
| 2026-05-06 07:23 | 49.83011 | 10.74306 | 36786 ft | 452 kts | 116° |
| 2026-05-06 07:23 | 49.80667 | 10.83290 | 36791 ft | 452 kts | 116° |
| 2026-05-06 07:24 | 49.78296 | 10.92330 | 36788 ft | 453 kts | 116° |
| 2026-05-06 07:24 | 49.75911 | 11.01353 | 36790 ft | 453 kts | 117° |
| 2026-05-06 07:25 | 49.73522 | 11.10379 | 36791 ft | 453 kts | 117° |
| 2026-05-06 07:25 | 49.71144 | 11.19343 | 36794 ft | 453 kts | 117° |
| 2026-05-06 07:26 | 49.68740 | 11.28368 | 36795 ft | 453 kts | 117° |
| 2026-05-06 07:26 | 49.66328 | 11.37356 | 36793 ft | 453 kts | 117° |
| 2026-05-06 07:27 | 49.64045 | 11.46459 | 36802 ft | 456 kts | 113° |
| 2026-05-06 07:27 | 49.62156 | 11.55826 | 36788 ft | 457 kts | 111° |
| 2026-05-06 07:28 | 49.60337 | 11.65250 | 36786 ft | 457 kts | 111° |
| 2026-05-06 07:28 | 49.57448 | 11.79167 | 36796 ft | 456 kts | 113° |
| 2026-05-06 07:29 | 49.55462 | 11.88461 | 36794 ft | 456 kts | 113° |
| 2026-05-06 07:29 | 49.53488 | 11.97757 | 36793 ft | 456 kts | 113° |
| 2026-05-06 07:30 | 49.51523 | 12.07016 | 36795 ft | 456 kts | 113° |
| 2026-05-06 07:30 | 49.49545 | 12.16282 | 36805 ft | 456 kts | 113° |
| 2026-05-06 07:31 | 49.47552 | 12.25541 | 36807 ft | 456 kts | 113° |
| 2026-05-06 07:31 | 49.45567 | 12.34732 | 36812 ft | 455 kts | 114° |
| 2026-05-06 07:32 | 49.43563 | 12.43974 | 36812 ft | 455 kts | 114° |
| 2026-05-06 07:32 | 49.41549 | 12.53227 | 36812 ft | 456 kts | 114° |
| 2026-05-06 07:33 | 49.39541 | 12.62427 | 36814 ft | 456 kts | 114° |
| 2026-05-06 07:33 | 49.37512 | 12.71666 | 36814 ft | 456 kts | 114° |
| 2026-05-06 07:34 | 49.35437 | 12.80874 | 36810 ft | 456 kts | 115° |
| 2026-05-06 07:34 | 49.33205 | 12.89988 | 36804 ft | 456 kts | 117° |
| 2026-05-06 07:35 | 49.30938 | 12.99017 | 36807 ft | 456 kts | 117° |
| 2026-05-06 07:35 | 49.28679 | 13.08119 | 36803 ft | 457 kts | 116° |
| 2026-05-06 07:36 | 49.26436 | 13.17241 | 36799 ft | 457 kts | 116° |
| 2026-05-06 07:36 | 49.24187 | 13.26311 | 36802 ft | 458 kts | 117° |
| 2026-05-06 07:37 | 49.21824 | 13.35394 | 36798 ft | 457 kts | 118° |
| 2026-05-06 07:37 | 49.19381 | 13.44309 | 36796 ft | 457 kts | 119° |
| 2026-05-06 07:38 | 49.16924 | 13.53279 | 36799 ft | 458 kts | 118° |
| 2026-05-06 07:38 | 49.14487 | 13.62291 | 36806 ft | 458 kts | 118° |
| 2026-05-06 07:39 | 49.13268 | 13.66803 | 36692 ft | 460 kts | 118° |
| 2026-05-06 07:39 | 49.12042 | 13.71315 | 36419 ft | 460 kts | 119° |
| 2026-05-06 07:39 | 49.10826 | 13.75798 | 36068 ft | 457 kts | 119° |
| 2026-05-06 07:39 | 49.09610 | 13.80278 | 35599 ft | 455 kts | 119° |
| 2026-05-06 07:40 | 49.08392 | 13.84733 | 35148 ft | 453 kts | 120° |
| 2026-05-06 07:40 | 49.07174 | 13.89158 | 34691 ft | 451 kts | 120° |
| 2026-05-06 07:40 | 49.05960 | 13.93556 | 34218 ft | 450 kts | 120° |
| 2026-05-06 07:40 | 49.04758 | 13.97913 | 33733 ft | 449 kts | 121° |
| 2026-05-06 07:41 | 49.03547 | 14.02295 | 33197 ft | 447 kts | 121° |
| 2026-05-06 07:41 | 49.02342 | 14.06645 | 32745 ft | 443 kts | 121° |
| 2026-05-06 07:41 | 49.01151 | 14.10941 | 32282 ft | 440 kts | 121° |
| 2026-05-06 07:41 | 49.00361 | 14.13791 | 31958 ft | 437 kts | 121° |
| 2026-05-06 07:42 | 48.99178 | 14.18062 | 31498 ft | 434 kts | 121° |
| 2026-05-06 07:42 | 48.97628 | 14.23641 | 30899 ft | 429 kts | 121° |
| 2026-05-06 07:42 | 48.96467 | 14.27808 | 30482 ft | 425 kts | 121° |
| 2026-05-06 07:42 | 48.95288 | 14.31916 | 30076 ft | 418 kts | 125° |
| 2026-05-06 07:43 | 48.93811 | 14.35648 | 29649 ft | 404 kts | 134° |
| 2026-05-06 07:43 | 48.92694 | 14.37881 | 29403 ft | 399 kts | 136° |
| 2026-05-06 07:43 | 48.91010 | 14.41209 | 29022 ft | 394 kts | 136° |
| 2026-05-06 07:43 | 48.89350 | 14.44499 | 28669 ft | 390 kts | 136° |
| 2026-05-06 07:44 | 48.87700 | 14.47768 | 28319 ft | 387 kts | 136° |
| 2026-05-06 07:44 | 48.86068 | 14.50995 | 27976 ft | 383 kts | 135° |
| 2026-05-06 07:44 | 48.84449 | 14.54190 | 27619 ft | 380 kts | 135° |
| 2026-05-06 07:44 | 48.82858 | 14.57329 | 27274 ft | 377 kts | 135° |
| 2026-05-06 07:45 | 48.81265 | 14.60472 | 26926 ft | 373 kts | 135° |
| 2026-05-06 07:45 | 48.79688 | 14.63582 | 26574 ft | 370 kts | 135° |
| 2026-05-06 07:45 | 48.78119 | 14.66666 | 26212 ft | 366 kts | 135° |
| 2026-05-06 07:45 | 48.76566 | 14.69711 | 25861 ft | 363 kts | 135° |
| 2026-05-06 07:46 | 48.75041 | 14.72694 | 25493 ft | 360 kts | 135° |
| 2026-05-06 07:46 | 48.73488 | 14.75721 | 25116 ft | 358 kts | 135° |
| 2026-05-06 07:46 | 48.71981 | 14.78656 | 24754 ft | 356 kts | 135° |
| 2026-05-06 07:46 | 48.70457 | 14.81632 | 24366 ft | 356 kts | 135° |
| 2026-05-06 07:47 | 48.68940 | 14.84593 | 23979 ft | 354 kts | 135° |
| 2026-05-06 07:47 | 48.67428 | 14.87547 | 23594 ft | 354 kts | 135° |
| 2026-05-06 07:47 | 48.65940 | 14.90453 | 23167 ft | 353 kts | 135° |
| 2026-05-06 07:47 | 48.64429 | 14.93399 | 22773 ft | 351 kts | 135° |
| 2026-05-06 07:48 | 48.62950 | 14.96274 | 22383 ft | 348 kts | 135° |
| 2026-05-06 07:48 | 48.61465 | 14.99151 | 22002 ft | 346 kts | 134° |
| 2026-05-06 07:48 | 48.60253 | 15.02265 | 21890 ft | 345 kts | 116° |
| 2026-05-06 07:48 | 48.59700 | 15.05802 | 21810 ft | 349 kts | 104° |
| 2026-05-06 07:49 | 48.59304 | 15.09437 | 21726 ft | 350 kts | 104° |
| 2026-05-06 07:49 | 48.58918 | 15.13060 | 21643 ft | 349 kts | 104° |
| 2026-05-06 07:49 | 48.58534 | 15.16691 | 21564 ft | 349 kts | 104° |
| 2026-05-06 07:49 | 48.58150 | 15.20315 | 21474 ft | 348 kts | 104° |
| 2026-05-06 07:50 | 48.57765 | 15.23926 | 21401 ft | 348 kts | 104° |
| 2026-05-06 07:50 | 48.57378 | 15.27545 | 21316 ft | 347 kts | 104° |
| 2026-05-06 07:50 | 48.56988 | 15.31146 | 21235 ft | 347 kts | 104° |
| 2026-05-06 07:50 | 48.56602 | 15.34692 | 21155 ft | 346 kts | 104° |
| 2026-05-06 07:51 | 48.56207 | 15.38301 | 21078 ft | 346 kts | 103° |
| 2026-05-06 07:51 | 48.55815 | 15.41881 | 20994 ft | 345 kts | 103° |
| 2026-05-06 07:51 | 48.55421 | 15.45461 | 20917 ft | 345 kts | 103° |
| 2026-05-06 07:51 | 48.55033 | 15.48987 | 20830 ft | 345 kts | 103° |
| 2026-05-06 07:52 | 48.54629 | 15.52614 | 20058 ft | 357 kts | 103° |
| 2026-05-06 07:52 | 48.54208 | 15.56370 | 19100 ft | 367 kts | 103° |
| 2026-05-06 07:52 | 48.53780 | 15.60206 | 18184 ft | 373 kts | 102° |
| 2026-05-06 07:52 | 48.53351 | 15.64079 | 17300 ft | 373 kts | 102° |
| 2026-05-06 07:53 | 48.52931 | 15.67899 | 16563 ft | 367 kts | 102° |
| 2026-05-06 07:53 | 48.52513 | 15.71687 | 15847 ft | 362 kts | 103° |
| 2026-05-06 07:53 | 48.52099 | 15.75422 | 15145 ft | 358 kts | 103° |
| 2026-05-06 07:53 | 48.51692 | 15.79064 | 14465 ft | 354 kts | 103° |
| 2026-05-06 07:54 | 48.51278 | 15.82738 | 13785 ft | 350 kts | 104° |
| 2026-05-06 07:54 | 48.50874 | 15.86297 | 13070 ft | 346 kts | 104° |
| 2026-05-06 07:54 | 48.50469 | 15.89839 | 12538 ft | 336 kts | 104° |
| 2026-05-06 07:54 | 48.50083 | 15.93252 | 12218 ft | 325 kts | 104° |
| 2026-05-06 07:55 | 48.49702 | 15.96589 | 11831 ft | 322 kts | 104° |
| 2026-05-06 07:55 | 48.49315 | 15.99912 | 11450 ft | 320 kts | 104° |
| 2026-05-06 07:55 | 48.48935 | 16.03170 | 11080 ft | 318 kts | 104° |
| 2026-05-06 07:55 | 48.48555 | 16.06441 | 10696 ft | 316 kts | 104° |
| 2026-05-06 07:56 | 48.48292 | 16.09720 | 10330 ft | 316 kts | 94° |
| 2026-05-06 07:56 | 48.48545 | 16.13022 | 9989 ft | 317 kts | 81° |
| 2026-05-06 07:56 | 48.48978 | 16.16240 | 9826 ft | 308 kts | 82° |
| 2026-05-06 07:56 | 48.49386 | 16.19369 | 9584 ft | 302 kts | 82° |
| 2026-05-06 07:57 | 48.49777 | 16.22468 | 9217 ft | 300 kts | 82° |
| 2026-05-06 07:57 | 48.50159 | 16.25565 | 8853 ft | 299 kts | 82° |
| 2026-05-06 07:57 | 48.50536 | 16.28608 | 8510 ft | 297 kts | 82° |
| 2026-05-06 07:57 | 48.50916 | 16.31671 | 8179 ft | 295 kts | 82° |
| 2026-05-06 07:58 | 48.51290 | 16.34707 | 7840 ft | 293 kts | 83° |
| 2026-05-06 07:58 | 48.51211 | 16.37717 | 7574 ft | 283 kts | 108° |
| 2026-05-06 07:58 | 48.50333 | 16.40321 | 7195 ft | 279 kts | 133° |
| 2026-05-06 07:58 | 48.48827 | 16.42103 | 6855 ft | 275 kts | 156° |
| 2026-05-06 07:59 | 48.46998 | 16.43036 | 6360 ft | 279 kts | 165° |
| 2026-05-06 07:59 | 48.45139 | 16.43819 | 6138 ft | 273 kts | 166° |
| 2026-05-06 07:59 | 48.43327 | 16.44495 | 6005 ft | 264 kts | 167° |
| 2026-05-06 07:59 | 48.41584 | 16.45200 | 5902 ft | 254 kts | 165° |
| 2026-05-06 08:00 | 48.39928 | 16.45911 | 5789 ft | 247 kts | 165° |
| 2026-05-06 08:00 | 48.38301 | 16.46611 | 5685 ft | 238 kts | 165° |
| 2026-05-06 08:00 | 48.36735 | 16.47281 | 5555 ft | 230 kts | 165° |
| 2026-05-06 08:00 | 48.35204 | 16.47936 | 5284 ft | 226 kts | 165° |
| 2026-05-06 08:01 | 48.33719 | 16.48570 | 4989 ft | 216 kts | 165° |
| 2026-05-06 08:01 | 48.32297 | 16.49178 | 4716 ft | 207 kts | 165° |
| 2026-05-06 08:01 | 48.30952 | 16.49752 | 4496 ft | 198 kts | 165° |
| 2026-05-06 08:01 | 48.29635 | 16.50313 | 4186 ft | 196 kts | 165° |
| 2026-05-06 08:02 | 48.28339 | 16.50865 | 3912 ft | 191 kts | 165° |
| 2026-05-06 08:02 | 48.27068 | 16.51407 | 3669 ft | 188 kts | 165° |
| 2026-05-06 08:02 | 48.25833 | 16.51933 | 3412 ft | 178 kts | 165° |
| 2026-05-06 08:02 | 48.24674 | 16.52426 | 3191 ft | 168 kts | 165° |
| 2026-05-06 08:03 | 48.23576 | 16.52894 | 2967 ft | 163 kts | 165° |
| 2026-05-06 08:03 | 48.22522 | 16.53342 | 2765 ft | 150 kts | 165° |
| 2026-05-06 08:03 | 48.21559 | 16.53752 | 2540 ft | 139 kts | 166° |
| 2026-05-06 08:03 | 48.20647 | 16.54139 | 2401 ft | 135 kts | 165° |
| 2026-05-06 08:04 | 48.19753 | 16.54519 | 2204 ft | 132 kts | 166° |
| 2026-05-06 08:04 | 48.18870 | 16.54888 | 2094 ft | 132 kts | 166° |
| 2026-05-06 08:04 | 48.18000 | 16.55248 | 1846 ft | 130 kts | 165° |
| 2026-05-06 08:04 | 48.17131 | 16.55621 | 1612 ft | 129 kts | 163° |
| 2026-05-06 08:05 | 48.16269 | 16.55994 | 1441 ft | 129 kts | 164° |
| 2026-05-06 08:05 | 48.15417 | 16.56366 | 1301 ft | 126 kts | 164° |
| 2026-05-06 08:05 | 48.14580 | 16.56722 | 1140 ft | 126 kts | 163° |
| 2026-05-06 08:05 | 48.13723 | 16.57087 | 959 ft | 128 kts | 165° |
| 2026-05-06 08:06 | 48.12877 | 16.57457 | 825 ft | 129 kts | 169° |
| 2026-05-06 08:06 | 48.11987 | 16.57820 | 663 ft | 131 kts | 164° |
| 2026-05-06 08:06 | 48.11162 | 16.58164 | 617 ft | 110 kts | 165° |
| 2026-05-06 08:06 | 48.10588 | 16.58405 | 616 ft | 62 kts | 163° |
| 2026-05-06 08:07 | 48.10313 | 16.58467 | 609 ft | 26 kts | 189° |
| 2026-05-06 08:07 | 48.10167 | 16.58415 | 615 ft | 17 kts | 196° |
| 2026-05-06 08:07 | 48.10146 | 16.58316 | 609 ft | 16 kts | 342° |
| 2026-05-06 08:07 | 48.10262 | 16.58265 | 613 ft | 20 kts | 345° |
| 2026-05-06 08:08 | 48.10424 | 16.58199 | 613 ft | 27 kts | 345° |
| 2026-05-06 08:08 | 48.10617 | 16.58115 | 616 ft | 30 kts | 344° |
| 2026-05-06 08:08 | 48.10823 | 16.58028 | 614 ft | 32 kts | 343° |
| 2026-05-06 08:08 | 48.11048 | 16.57933 | 616 ft | 32 kts | 345° |
| 2026-05-06 08:09 | 48.11152 | 16.57731 | 612 ft | 21 kts | 297° |
| 2026-05-06 08:09 | 48.11218 | 16.57539 | 613 ft | 20 kts | 296° |
| 2026-05-06 08:09 | 48.11275 | 16.57356 | 612 ft | 19 kts | 296° |
| 2026-05-06 08:09 | 48.11330 | 16.57184 | 620 ft | 18 kts | 294° |
| 2026-05-06 08:10 | 48.11386 | 16.57016 | 609 ft | 18 kts | 298° |
| 2026-05-06 08:10 | 48.11442 | 16.56841 | 612 ft | 20 kts | 295° |
| 2026-05-06 08:10 | 48.11503 | 16.56657 | 609 ft | 20 kts | 298° |
| 2026-05-06 08:10 | 48.11563 | 16.56477 | 611 ft | 19 kts | 294° |
| 2026-05-06 08:11 | 48.11618 | 16.56304 | 616 ft | 18 kts | 297° |
| 2026-05-06 08:11 | 48.11675 | 16.56129 | 617 ft | 21 kts | 293° |
| 2026-05-06 08:11 | 48.11748 | 16.55902 | 617 ft | 25 kts | 296° |
| 2026-05-06 08:11 | 48.11824 | 16.55671 | 618 ft | 24 kts | 296° |
| 2026-05-06 08:12 | 48.11881 | 16.55479 | 615 ft | 9 kts | 281° |
| 2026-05-06 08:12 | 48.11924 | 16.55441 | 609 ft | 8 kts | 15° |
| 2026-05-06 08:12 | 48.11980 | 16.55484 | 609 ft | 10 kts | 24° |
| 2026-05-06 08:12 | 48.12044 | 16.55530 | 609 ft | 10 kts | 26° |
| 2026-05-06 08:13 | 48.12101 | 16.55560 | 609 ft | 4 kts | 329° |
| 2026-05-06 08:13 | 48.12117 | 16.55517 | 611 ft | 5 kts | 293° |
| 2026-05-06 08:13 | 48.12123 | 16.55497 | 619 ft | 0 kts | 296° |